Time;durP1;ratioP1;P1;durP2;ratioP2;P2;SDS_P1;SDS_P2;PMS_P1;PMS_P2;Temp;Humidity;BMP_temperature;BMP_pressure;BME280_temperature;BME280_humidity;BME280_pressure;Samples;Min_cycle;Max_cycle;Signal;HPM_P1;HPM_P2
2021/12/31 00:01:45;;;;;;;1.20;1.00;;;11.00;99.90;;;;;;5035549;28;20639;-69
2021/12/31 00:04:11;;;;;;;1.27;1.17;;;11.00;99.90;;;;;;5034748;28;20176;-68
2021/12/31 00:06:36;;;;;;;1.40;1.30;;;11.00;99.90;;;;;;5035304;28;20552;-68
2021/12/31 00:09:03;;;;;;;1.30;1.20;;;11.00;99.90;;;;;;5034936;28;20171;-69
2021/12/31 00:11:29;;;;;;;1.30;1.20;;;11.00;99.90;;;;;;5035482;28;20171;-68
2021/12/31 00:13:55;;;;;;;1.10;1.00;;;11.00;99.90;;;;;;5034428;28;20480;-68
2021/12/31 00:16:20;;;;;;;1.10;1.00;;;11.00;99.90;;;;;;5035162;28;20192;-70
2021/12/31 00:18:46;;;;;;;1.23;1.13;;;10.90;99.90;;;;;;5035253;28;20163;-69
2021/12/31 00:21:12;;;;;;;1.20;1.10;;;11.00;99.90;;;;;;5035272;28;20238;-69
2021/12/31 00:23:37;;;;;;;1.23;1.13;;;11.00;99.90;;;;;;5034506;28;20175;-68
2021/12/31 00:26:03;;;;;;;1.30;1.20;;;10.90;99.90;;;;;;5035000;28;20201;-71
2021/12/31 00:28:28;;;;;;;1.27;1.17;;;10.90;99.90;;;;;;5034583;28;20229;-68
2021/12/31 00:30:55;;;;;;;1.30;1.20;;;11.00;99.90;;;;;;5034905;28;20276;-69
2021/12/31 00:33:22;;;;;;;1.23;1.13;;;10.90;99.90;;;;;;5032852;28;20198;-68
2021/12/31 00:35:48;;;;;;;1.10;1.00;;;11.00;99.90;;;;;;5034944;28;20429;-68
2021/12/31 00:38:14;;;;;;;1.00;0.90;;;11.00;99.90;;;;;;5035121;28;20445;-70
2021/12/31 00:40:39;;;;;;;1.20;1.10;;;11.00;99.90;;;;;;5034854;28;20254;-69
2021/12/31 00:43:10;;;;;;;1.23;1.13;;;11.00;99.90;;;;;;5033905;28;20202;-68
2021/12/31 00:45:39;;;;;;;1.00;0.90;;;11.00;99.90;;;;;;5034815;28;20170;-68
2021/12/31 00:48:05;;;;;;;1.10;1.00;;;11.00;99.90;;;;;;5034125;28;20426;-68
2021/12/31 00:50:31;;;;;;;1.00;0.90;;;11.00;99.90;;;;;;5034703;28;20450;-68
2021/12/31 00:52:56;;;;;;;1.10;1.00;;;11.00;99.90;;;;;;5033550;28;20535;-68
2021/12/31 00:55:22;;;;;;;0.90;0.80;;;11.00;99.90;;;;;;5034502;28;20189;-67
2021/12/31 00:57:49;;;;;;;1.10;1.00;;;11.10;99.90;;;;;;5034498;28;20179;-68
2021/12/31 01:00:16;;;;;;;1.20;1.10;;;11.10;99.90;;;;;;5034502;28;20220;-68
2021/12/31 01:02:46;;;;;;;1.23;1.07;;;11.00;99.90;;;;;;5033716;28;20484;-70
2021/12/31 01:05:13;;;;;;;1.10;1.00;;;11.00;99.90;;;;;;5034280;28;20393;-69
2021/12/31 01:07:40;;;;;;;1.00;0.90;;;11.10;99.90;;;;;;5033497;28;20800;-69
2021/12/31 01:10:07;;;;;;;1.13;1.03;;;11.10;99.90;;;;;;5034178;28;20431;-68
2021/12/31 01:12:33;;;;;;;1.10;1.00;;;11.10;99.90;;;;;;5033370;28;20892;-68
2021/12/31 01:15:09;;;;;;;1.20;1.10;;;11.10;99.90;;;;;;5034204;28;20420;-69
2021/12/31 01:17:48;;;;;;;1.33;1.23;;;11.10;99.90;;;;;;5034043;28;20194;-68
2021/12/31 01:20:17;;;;;;;1.60;1.50;;;11.10;99.90;;;;;;5032773;28;20823;-68
2021/12/31 01:22:43;;;;;;;1.53;1.43;;;11.10;99.90;;;;;;5033239;28;20922;-69
2021/12/31 01:25:09;;;;;;;1.70;1.40;;;11.20;99.90;;;;;;5033895;28;20415;-70
2021/12/31 01:27:35;;;;;;;1.60;1.50;;;11.20;99.90;;;;;;5033169;28;20433;-67
2021/12/31 01:30:03;;;;;;;3.20;2.97;;;11.20;99.90;;;;;;5032751;28;20504;-69
2021/12/31 01:32:30;;;;;;;2.00;1.80;;;11.20;99.90;;;;;;5033257;28;20815;-68
2021/12/31 01:34:56;;;;;;;2.43;2.13;;;11.20;99.90;;;;;;5033923;28;20461;-68
2021/12/31 01:37:21;;;;;;;1.60;1.50;;;11.20;99.90;;;;;;5033648;28;20418;-69
2021/12/31 01:39:47;;;;;;;1.70;1.60;;;11.30;99.90;;;;;;5033957;28;20194;-70
2021/12/31 01:42:14;;;;;;;2.03;1.83;;;11.30;99.90;;;;;;5033176;28;20176;-68
2021/12/31 01:44:44;;;;;;;2.33;1.80;;;11.40;99.90;;;;;;5033438;28;20191;-70
2021/12/31 01:47:13;;;;;;;3.90;1.93;;;11.30;99.90;;;;;;5033302;28;20509;-69
2021/12/31 01:49:43;;;;;;;1.80;1.70;;;11.40;99.90;;;;;;5033620;28;20390;-69
2021/12/31 01:52:10;;;;;;;2.40;1.60;;;11.40;99.90;;;;;;5032747;28;20449;-70
2021/12/31 01:54:37;;;;;;;1.97;1.53;;;11.40;99.90;;;;;;5033576;28;20480;-68
2021/12/31 01:57:05;;;;;;;2.27;2.10;;;11.50;99.90;;;;;;5032550;28;20393;-68
2021/12/31 01:59:35;;;;;;;1.53;1.43;;;11.50;99.90;;;;;;5032188;28;20930;-70
2021/12/31 02:02:01;;;;;;;2.90;1.20;;;11.50;99.90;;;;;;5032209;28;20398;-74
2021/12/31 02:04:29;;;;;;;2.50;2.30;;;11.60;99.90;;;;;;5033309;28;20788;-68
2021/12/31 02:06:55;;;;;;;8.63;1.63;;;11.60;99.90;;;;;;5033369;28;20434;-69
2021/12/31 02:09:21;;;;;;;2.80;2.00;;;11.60;99.90;;;;;;5033425;28;20399;-69
2021/12/31 02:11:47;;;;;;;2.23;2.03;;;11.60;99.90;;;;;;5033070;28;20544;-74
2021/12/31 02:14:12;;;;;;;5.10;2.23;;;11.60;99.90;;;;;;5032453;28;20549;-69
2021/12/31 02:16:38;;;;;;;3.10;2.90;;;11.70;99.90;;;;;;5033396;28;20184;-69
2021/12/31 02:19:14;;;;;;;4.10;2.43;;;11.60;99.90;;;;;;5033273;28;20166;-70
2021/12/31 02:21:44;;;;;;;6.50;2.50;;;11.70;99.90;;;;;;5035765;28;20281;-71
2021/12/31 02:24:11;;;;;;;5.83;2.70;;;11.70;99.90;;;;;;5039131;28;20547;-71
2021/12/31 02:26:37;;;;;;;3.47;3.17;;;11.70;99.90;;;;;;5039873;28;20496;-69
2021/12/31 02:29:03;;;;;;;4.07;2.87;;;11.70;99.90;;;;;;5038564;28;20424;-70
2021/12/31 02:31:29;;;;;;;8.43;2.83;;;11.70;99.90;;;;;;5039830;28;20179;-70
2021/12/31 02:33:54;;;;;;;5.07;2.70;;;11.70;99.90;;;;;;5038699;28;20198;-71
2021/12/31 02:36:20;;;;;;;5.83;2.40;;;11.70;99.90;;;;;;5038410;28;20194;-70
2021/12/31 02:38:46;;;;;;;7.83;2.60;;;11.70;99.90;;;;;;5039684;28;20168;-72
2021/12/31 02:41:12;;;;;;;2.50;2.07;;;11.70;99.90;;;;;;5039459;28;20198;-70
2021/12/31 02:43:38;;;;;;;4.23;2.17;;;11.70;99.90;;;;;;5037185;28;20654;-70
2021/12/31 02:46:04;;;;;;;3.43;2.47;;;11.70;99.90;;;;;;5039461;28;20191;-70
2021/12/31 02:48:30;;;;;;;2.63;2.43;;;11.70;99.90;;;;;;5039685;28;20807;-70
2021/12/31 02:50:57;;;;;;;2.20;2.10;;;11.70;99.90;;;;;;5039511;28;20505;-69
2021/12/31 02:53:36;;;;;;;2.67;2.10;;;11.70;99.90;;;;;;5038648;28;20580;-70
2021/12/31 02:56:05;;;;;;;5.43;2.73;;;11.70;99.90;;;;;;5038139;28;20432;-70
2021/12/31 02:58:31;;;;;;;4.67;3.00;;;11.70;99.90;;;;;;5039036;28;20917;-68
2021/12/31 03:00:57;;;;;;;4.53;2.20;;;11.70;99.90;;;;;;5039423;28;20413;-68
2021/12/31 03:03:24;;;;;;;5.23;2.30;;;11.70;99.90;;;;;;5038739;28;20410;-71
2021/12/31 03:05:53;;;;;;;2.10;1.90;;;11.60;99.90;;;;;;5039334;28;20454;-71
2021/12/31 03:08:25;;;;;;;7.73;2.50;;;11.60;99.90;;;;;;5039422;28;20417;-70
2021/12/31 03:10:53;;;;;;;3.43;2.20;;;11.60;99.90;;;;;;5039513;28;20410;-69
2021/12/31 03:13:19;;;;;;;2.30;2.10;;;11.60;99.90;;;;;;5038492;28;20488;-69
2021/12/31 03:15:46;;;;;;;5.03;1.67;;;11.60;99.90;;;;;;5037261;28;20434;-69
2021/12/31 03:18:11;;;;;;;1.90;1.80;;;11.60;99.90;;;;;;5039284;28;20421;-70
2021/12/31 03:20:43;;;;;;;1.60;1.47;;;11.60;99.90;;;;;;5039396;28;20403;-68
2021/12/31 03:23:10;;;;;;;5.93;2.90;;;11.60;99.90;;;;;;5038587;28;20636;-69
2021/12/31 03:25:36;;;;;;;1.70;1.60;;;11.60;99.90;;;;;;5039316;28;20402;-68
2021/12/31 03:28:02;;;;;;;2.13;1.60;;;11.60;99.90;;;;;;5039190;28;20732;-68
2021/12/31 03:30:28;;;;;;;4.57;1.73;;;11.60;99.90;;;;;;5039250;28;20394;-69
2021/12/31 03:32:54;;;;;;;2.57;1.87;;;11.60;99.90;;;;;;5037002;28;20445;-69
2021/12/31 03:35:19;;;;;;;6.93;2.30;;;11.50;99.90;;;;;;5034447;28;20173;-67
2021/12/31 03:37:45;;;;;;;2.93;2.20;;;11.60;99.90;;;;;;5034822;28;20175;-69
2021/12/31 03:40:11;;;;;;;8.20;3.10;;;11.60;99.90;;;;;;5036226;28;20198;-70
2021/12/31 03:42:37;;;;;;;1.93;1.63;;;11.60;99.90;;;;;;5035228;28;20238;-68
2021/12/31 03:45:04;;;;;;;1.73;1.63;;;11.60;99.90;;;;;;5035981;28;20756;-71
2021/12/31 03:47:30;;;;;;;2.63;1.80;;;11.60;99.90;;;;;;5035765;28;20934;-69
2021/12/31 03:49:55;;;;;;;3.63;2.23;;;11.50;99.90;;;;;;5035820;28;20402;-70
2021/12/31 03:52:21;;;;;;;2.30;2.20;;;11.50;99.90;;;;;;5032871;28;20245;-69
2021/12/31 03:54:47;;;;;;;5.73;1.70;;;11.50;99.90;;;;;;5034466;28;20203;-69
2021/12/31 03:57:12;;;;;;;3.47;2.00;;;11.50;99.90;;;;;;5035554;28;20274;-70
2021/12/31 03:59:38;;;;;;;2.93;2.53;;;11.50;99.90;;;;;;5035869;28;20168;-69
2021/12/31 04:02:03;;;;;;;6.73;2.07;;;11.60;99.90;;;;;;5033803;28;20221;-70
2021/12/31 04:04:30;;;;;;;3.70;2.20;;;11.50;99.90;;;;;;5035377;28;20176;-72
2021/12/31 04:06:56;;;;;;;1.93;1.83;;;11.50;99.90;;;;;;5034247;28;20192;-70
2021/12/31 04:09:21;;;;;;;3.83;2.33;;;11.50;99.90;;;;;;5034857;28;20399;-70
2021/12/31 04:11:47;;;;;;;9.77;2.40;;;11.50;99.90;;;;;;5034256;28;20182;-75
2021/12/31 04:14:12;;;;;;;6.67;2.60;;;11.50;99.90;;;;;;5033298;28;20206;-70
2021/12/31 04:16:38;;;;;;;3.60;2.53;;;11.60;99.90;;;;;;5035262;28;20184;-70
2021/12/31 04:19:03;;;;;;;4.90;2.60;;;11.60;99.90;;;;;;5034032;28;20168;-71
2021/12/31 04:21:31;;;;;;;13.83;5.50;;;11.60;99.90;;;;;;5034276;28;20163;-69
2021/12/31 04:24:14;;;;;;;10.40;3.40;;;11.60;99.90;;;;;;5034372;28;20168;-70
2021/12/31 04:26:40;;;;;;;3.57;2.30;;;11.60;99.90;;;;;;5035015;28;20446;-69
2021/12/31 04:29:06;;;;;;;5.03;2.80;;;11.50;99.90;;;;;;5034492;28;20812;-72
2021/12/31 04:31:31;;;;;;;9.03;3.00;;;11.60;99.90;;;;;;5035222;28;20501;-70
2021/12/31 04:33:59;;;;;;;7.90;3.17;;;11.60;99.90;;;;;;5032811;28;20538;-69
2021/12/31 04:36:25;;;;;;;13.33;3.27;;;11.60;99.90;;;;;;5034945;28;20183;-70
2021/12/31 04:38:50;;;;;;;5.00;2.30;;;11.60;99.90;;;;;;5034764;28;20399;-71
2021/12/31 04:41:16;;;;;;;2.83;2.50;;;11.60;99.90;;;;;;5035118;28;20710;-69
2021/12/31 04:43:42;;;;;;;10.00;2.60;;;11.60;99.90;;;;;;5032541;28;20203;-71
2021/12/31 04:46:07;;;;;;;6.40;3.13;;;11.60;99.90;;;;;;5033579;28;20194;-71
2021/12/31 04:48:33;;;;;;;4.90;2.07;;;11.60;99.90;;;;;;5034025;28;20229;-71
2021/12/31 04:50:58;;;;;;;3.37;2.50;;;11.60;99.90;;;;;;5033375;28;20187;-71
2021/12/31 04:53:24;;;;;;;5.30;2.67;;;11.60;99.90;;;;;;5033662;28;20722;-69
2021/12/31 04:55:50;;;;;;;4.10;2.37;;;11.60;99.90;;;;;;5034667;28;20191;-69
2021/12/31 04:58:16;;;;;;;6.90;2.57;;;11.60;99.90;;;;;;5034661;28;20214;-71
2021/12/31 05:00:42;;;;;;;7.70;2.53;;;11.60;99.90;;;;;;5034465;28;20407;-72
2021/12/31 05:03:08;;;;;;;5.10;2.67;;;11.60;99.90;;;;;;5032294;28;20171;-71
2021/12/31 05:05:35;;;;;;;2.40;2.20;;;11.60;99.90;;;;;;5034287;28;20160;-70
2021/12/31 05:08:00;;;;;;;8.17;3.67;;;11.60;99.90;;;;;;5033657;28;20768;-70
2021/12/31 05:10:30;;;;;;;3.00;2.13;;;11.60;99.90;;;;;;5033090;28;20413;-70
2021/12/31 05:12:56;;;;;;;5.43;2.70;;;11.60;99.90;;;;;;5033201;28;20191;-69
2021/12/31 05:15:26;;;;;;;7.23;3.00;;;11.50;99.90;;;;;;5034309;28;20886;-71
2021/12/31 05:17:52;;;;;;;4.83;2.73;;;11.50;99.90;;;;;;5034183;28;20369;-69
2021/12/31 05:20:18;;;;;;;3.10;2.53;;;11.50;99.90;;;;;;5034040;28;20468;-70
2021/12/31 05:22:44;;;;;;;5.57;3.10;;;11.50;99.90;;;;;;5033153;28;20659;-70
2021/12/31 05:25:10;;;;;;;2.73;2.53;;;11.50;99.90;;;;;;5033585;28;20493;-71
2021/12/31 05:27:36;;;;;;;5.40;2.73;;;11.60;99.90;;;;;;5033685;28;20742;-70
2021/12/31 05:30:02;;;;;;;3.60;3.10;;;11.60;99.90;;;;;;5034058;28;20659;-70
2021/12/31 05:32:27;;;;;;;6.40;2.60;;;11.60;99.90;;;;;;5033127;28;20163;-71
2021/12/31 05:34:53;;;;;;;6.87;2.50;;;11.60;99.90;;;;;;5033863;28;20472;-72
2021/12/31 05:37:19;;;;;;;7.70;3.00;;;11.60;99.90;;;;;;5033675;28;20199;-70
2021/12/31 05:39:44;;;;;;;9.13;3.27;;;11.60;99.90;;;;;;5034005;28;20163;-71
2021/12/31 05:42:10;;;;;;;4.60;3.40;;;11.70;99.90;;;;;;5032947;28;20784;-70
2021/12/31 05:44:36;;;;;;;6.60;3.03;;;11.70;99.90;;;;;;5033512;28;20166;-72
2021/12/31 05:47:02;;;;;;;7.13;3.13;;;11.70;99.90;;;;;;5033425;28;20484;-69
2021/12/31 05:49:28;;;;;;;3.83;2.80;;;11.60;99.90;;;;;;5033687;28;20172;-69
2021/12/31 05:51:54;;;;;;;9.40;3.27;;;11.60;99.90;;;;;;5033270;28;20467;-70
2021/12/31 05:54:19;;;;;;;4.83;3.10;;;11.70;99.90;;;;;;5032934;28;20454;-68
2021/12/31 05:56:45;;;;;;;6.67;2.90;;;11.70;99.90;;;;;;5032793;28;20199;-69
2021/12/31 05:59:11;;;;;;;11.23;2.80;;;11.70;99.90;;;;;;5032466;28;20207;-69
2021/12/31 06:01:37;;;;;;;5.47;2.80;;;11.60;99.90;;;;;;5032203;28;20529;-70
2021/12/31 06:04:02;;;;;;;7.33;3.00;;;11.70;99.90;;;;;;5032478;28;20561;-69
2021/12/31 06:06:28;;;;;;;3.33;2.80;;;11.70;99.90;;;;;;5032632;28;20530;-69
2021/12/31 06:08:54;;;;;;;7.87;2.13;;;11.70;99.90;;;;;;5033404;28;20166;-69
2021/12/31 06:11:19;;;;;;;3.63;2.93;;;11.70;99.90;;;;;;5033238;28;20242;-69
2021/12/31 06:13:49;;;;;;;6.57;2.23;;;11.70;99.90;;;;;;5032386;28;20624;-70
2021/12/31 06:16:15;;;;;;;10.90;3.70;;;11.70;99.90;;;;;;5033397;28;20179;-70
2021/12/31 06:18:40;;;;;;;5.23;2.70;;;11.70;99.90;;;;;;5033358;28;20381;-71
2021/12/31 06:21:07;;;;;;;4.97;4.47;;;11.70;99.90;;;;;;5031949;28;20171;-69
2021/12/31 06:23:32;;;;;;;7.43;3.40;;;11.70;99.90;;;;;;5031548;28;20174;-70
2021/12/31 06:25:58;;;;;;;8.23;3.30;;;11.70;99.90;;;;;;5031922;28;20459;-71
2021/12/31 06:28:24;;;;;;;9.03;3.73;;;11.70;99.90;;;;;;5033196;28;20241;-71
2021/12/31 06:30:50;;;;;;;7.00;3.17;;;11.70;99.90;;;;;;5033207;28;20234;-72
2021/12/31 06:33:15;;;;;;;4.33;3.67;;;11.70;99.90;;;;;;5032268;28;20549;-69
2021/12/31 06:35:41;;;;;;;5.93;3.20;;;11.70;99.90;;;;;;5032468;28;20192;-69
2021/12/31 06:38:07;;;;;;;4.77;2.70;;;11.70;99.90;;;;;;5032171;28;20183;-69
2021/12/31 06:40:35;;;;;;;2.67;2.30;;;11.70;99.90;;;;;;5032556;28;20251;-71
2021/12/31 06:43:00;;;;;;;3.40;3.13;;;11.70;99.90;;;;;;5031686;28;20189;-70
2021/12/31 06:45:26;;;;;;;8.60;3.50;;;11.70;99.90;;;;;;5032927;28;20434;-71
2021/12/31 06:47:52;;;;;;;3.60;3.30;;;11.70;99.90;;;;;;5033131;28;20180;-70
2021/12/31 06:50:18;;;;;;;13.30;3.50;;;11.60;99.90;;;;;;5033052;28;20183;-70
2021/12/31 06:52:45;;;;;;;8.63;3.60;;;11.70;99.90;;;;;;5030773;28;20656;-71
2021/12/31 06:55:11;;;;;;;4.07;3.00;;;11.70;99.90;;;;;;5033096;28;20160;-70
2021/12/31 06:57:36;;;;;;;11.20;3.03;;;11.70;99.90;;;;;;5032974;28;20421;-71
2021/12/31 07:00:07;;;;;;;10.83;4.03;;;11.70;99.90;;;;;;5032165;28;20163;-71
2021/12/31 07:02:32;;;;;;;6.53;3.30;;;11.80;99.90;;;;;;5031911;28;20160;-72
2021/12/31 07:04:58;;;;;;;3.70;2.80;;;11.80;99.90;;;;;;5032857;28;20450;-71
2021/12/31 07:07:23;;;;;;;3.50;3.20;;;11.80;99.90;;;;;;5033836;28;20191;-72
2021/12/31 07:09:49;;;;;;;6.70;3.00;;;11.80;99.90;;;;;;5035264;28;20637;-72
2021/12/31 07:12:15;;;;;;;6.73;3.00;;;11.80;99.90;;;;;;5035360;28;20262;-71
2021/12/31 07:14:40;;;;;;;5.50;3.10;;;11.80;99.90;;;;;;5036577;28;20231;-72
2021/12/31 07:17:06;;;;;;;4.67;2.90;;;11.90;99.90;;;;;;5035311;28;20195;-71
2021/12/31 07:19:32;;;;;;;11.13;4.20;;;11.80;99.90;;;;;;5020662;28;20192;-70
2021/12/31 07:21:58;;;;;;;6.40;3.07;;;11.80;99.90;;;;;;5028616;28;20176;-74
2021/12/31 07:24:23;;;;;;;4.17;2.87;;;11.80;99.90;;;;;;5015753;28;20180;-68
2021/12/31 07:26:49;;;;;;;7.70;2.90;;;11.80;99.90;;;;;;5033906;28;20203;-69
2021/12/31 07:29:15;;;;;;;7.70;3.27;;;11.80;99.90;;;;;;5032194;28;20183;-71
2021/12/31 07:31:40;;;;;;;4.13;3.17;;;11.70;99.90;;;;;;5021529;28;20721;-71
2021/12/31 07:34:06;;;;;;;4.90;1.90;;;11.70;99.90;;;;;;5014600;28;20204;-70
2021/12/31 07:36:32;;;;;;;3.40;3.07;;;11.70;99.90;;;;;;5032089;28;20290;-69
2021/12/31 07:39:05;;;;;;;4.83;3.23;;;11.70;99.90;;;;;;5024866;28;20172;-70
2021/12/31 07:41:30;;;;;;;3.90;3.43;;;11.70;99.90;;;;;;5032039;28;20645;-70
2021/12/31 07:43:56;;;;;;;5.67;3.43;;;11.60;99.90;;;;;;5034479;28;20428;-69
2021/12/31 07:46:22;;;;;;;8.93;3.13;;;11.60;99.90;;;;;;5034117;28;20198;-70
2021/12/31 07:48:47;;;;;;;11.33;3.50;;;11.60;99.90;;;;;;5032389;28;20645;-70
2021/12/31 07:51:13;;;;;;;3.67;3.37;;;11.60;99.90;;;;;;5027466;28;20195;-70
2021/12/31 07:53:39;;;;;;;6.60;3.20;;;11.60;99.90;;;;;;5034913;28;20199;-70
2021/12/31 07:56:04;;;;;;;4.00;3.60;;;11.60;99.90;;;;;;5035471;28;20195;-70
2021/12/31 07:58:30;;;;;;;3.53;3.30;;;11.60;99.90;;;;;;5031771;28;20170;-70
2021/12/31 08:00:56;;;;;;;8.30;2.83;;;11.60;99.90;;;;;;5023326;28;20175;-71
2021/12/31 08:03:22;;;;;;;4.23;3.70;;;11.60;99.90;;;;;;5026624;28;20649;-70
2021/12/31 08:05:48;;;;;;;7.53;3.80;;;11.60;99.90;;;;;;5022469;28;20278;-70
2021/12/31 08:08:13;;;;;;;5.47;3.73;;;11.60;99.90;;;;;;5035462;28;20164;-69
2021/12/31 08:10:39;;;;;;;3.53;3.23;;;11.70;99.90;;;;;;5034538;28;20194;-70
2021/12/31 08:13:05;;;;;;;9.13;4.90;;;11.70;99.90;;;;;;5034239;28;20664;-72
2021/12/31 08:15:31;;;;;;;8.83;3.90;;;11.70;99.90;;;;;;5030260;28;20168;-70
2021/12/31 08:17:57;;;;;;;4.07;3.50;;;11.70;99.90;;;;;;5026187;28;20522;-73
2021/12/31 08:20:24;;;;;;;4.87;4.37;;;11.70;99.90;;;;;;5030273;28;20415;-70
2021/12/31 08:22:50;;;;;;;3.60;3.30;;;11.80;99.90;;;;;;5023094;28;20418;-70
2021/12/31 08:25:15;;;;;;;5.07;3.80;;;11.70;99.90;;;;;;5030948;28;20440;-68
2021/12/31 08:27:41;;;;;;;3.50;3.20;;;11.70;99.90;;;;;;5027544;28;20438;-70
2021/12/31 08:30:08;;;;;;;4.83;3.43;;;11.80;99.90;;;;;;5019673;28;20182;-68
2021/12/31 08:32:34;;;;;;;7.80;4.20;;;11.70;99.90;;;;;;5022867;28;20175;-68
2021/12/31 08:35:00;;;;;;;4.23;3.40;;;11.70;99.90;;;;;;5034920;28;20439;-71
2021/12/31 08:37:26;;;;;;;3.00;2.80;;;11.70;99.90;;;;;;5023207;28;20470;-69
2021/12/31 08:39:51;;;;;;;8.83;3.57;;;11.70;99.90;;;;;;5024267;28;20172;-69
2021/12/31 08:42:17;;;;;;;5.03;3.30;;;11.80;99.90;;;;;;5033862;28;20179;-70
2021/12/31 08:44:42;;;;;;;4.63;4.17;;;11.80;99.90;;;;;;5034735;28;20254;-69
2021/12/31 08:47:08;;;;;;;6.80;3.33;;;11.80;99.90;;;;;;5034468;28;20241;-70
2021/12/31 08:49:34;;;;;;;5.70;2.50;;;11.80;99.90;;;;;;5034852;28;20167;-70
2021/12/31 08:52:00;;;;;;;5.00;3.90;;;11.80;99.90;;;;;;5032896;28;20191;-74
2021/12/31 08:54:26;;;;;;;4.73;2.87;;;11.80;99.90;;;;;;5034703;28;20333;-71
2021/12/31 08:56:52;;;;;;;7.50;5.17;;;11.90;99.90;;;;;;5034400;28;20505;-73
2021/12/31 08:59:19;;;;;;;4.23;2.83;;;11.90;99.90;;;;;;5034694;28;20155;-72
2021/12/31 09:01:45;;;;;;;3.90;2.60;;;11.90;99.90;;;;;;5034635;28;20160;-72
2021/12/31 09:04:11;;;;;;;3.80;3.50;;;11.90;95.90;;;;;;5033184;28;20403;-71
2021/12/31 09:06:36;;;;;;;3.77;3.43;;;12.00;93.90;;;;;;5034412;28;20421;-72
2021/12/31 09:09:03;;;;;;;3.20;2.90;;;12.00;91.90;;;;;;5034384;28;20164;-69
2021/12/31 09:11:29;;;;;;;4.07;3.63;;;12.00;90.00;;;;;;5034430;28;20163;-71
2021/12/31 09:13:56;;;;;;;8.03;3.43;;;12.00;83.80;;;;;;5033272;28;20644;-72
2021/12/31 09:16:22;;;;;;;7.43;2.90;;;12.00;80.80;;;;;;5033044;28;20438;-71
2021/12/31 09:18:48;;;;;;;4.57;3.27;;;12.10;73.80;;;;;;5034126;28;20424;-69
2021/12/31 09:21:17;;;;;;;7.80;3.10;;;12.10;71.30;;;;;;5033748;28;20193;-71
2021/12/31 09:23:45;;;;;;;9.43;3.87;;;12.10;65.80;;;;;;5032058;28;20618;-71
2021/12/31 09:26:11;;;;;;;6.63;3.03;;;12.00;64.30;;;;;;5034014;28;20516;-70
2021/12/31 09:28:36;;;;;;;2.93;2.70;;;12.10;61.40;;;;;;5033993;28;20473;-72
2021/12/31 09:31:03;;;;;;;3.37;3.17;;;12.10;61.40;;;;;;5033842;28;20878;-71
2021/12/31 09:33:29;;;;;;;3.80;3.50;;;12.10;60.20;;;;;;5032966;28;20242;-71
2021/12/31 09:35:55;;;;;;;3.10;2.90;;;12.10;54.30;;;;;;5033528;28;20754;-73
2021/12/31 09:38:21;;;;;;;2.83;2.53;;;12.20;48.30;;;;;;5033888;28;20214;-73
2021/12/31 09:40:47;;;;;;;4.70;3.43;;;12.20;44.70;;;;;;5032588;28;20458;-71
2021/12/31 09:43:13;;;;;;;4.20;3.83;;;12.20;40.70;;;;;;5031503;28;20217;-71
2021/12/31 09:45:42;;;;;;;2.83;2.63;;;12.20;35.50;;;;;;5033897;28;20380;-73
2021/12/31 09:48:12;;;;;;;5.67;3.50;;;12.30;34.00;;;;;;5033850;28;20403;-71
2021/12/31 09:50:41;;;;;;;3.57;3.37;;;12.30;31.20;;;;;;5033644;28;20428;-73
2021/12/31 09:53:08;;;;;;;4.73;3.20;;;12.30;29.40;;;;;;5032548;28;20453;-71
2021/12/31 09:55:55;;;;;;;6.80;3.20;;;12.20;30.20;;;;;;5033055;28;20877;-71
2021/12/31 09:58:23;;;;;;;3.83;3.23;;;12.20;29.70;;;;;;5033445;28;20402;-70
2021/12/31 10:00:51;;;;;;;3.37;2.40;;;12.20;30.90;;;;;;5033541;28;20442;-70
2021/12/31 10:03:16;;;;;;;5.93;2.43;;;12.20;31.40;;;;;;5032520;28;20413;-71
2021/12/31 10:05:48;;;;;;;7.80;3.27;;;12.20;34.00;;;;;;5033398;28;20418;-72
2021/12/31 10:08:28;;;;;;;3.30;3.00;;;12.10;36.60;;;;;;5033491;28;20174;-71
2021/12/31 10:11:11;;;;;;;3.00;2.70;;;12.10;39.70;;;;;;5033051;28;20384;-71
2021/12/31 10:14:05;;;;;;;3.43;3.00;;;12.10;43.60;;;;;;5031233;28;20592;-74
2021/12/31 10:16:41;;;;;;;4.03;3.20;;;12.10;46.20;;;;;;5033054;28;20453;-73
2021/12/31 10:19:18;;;;;;;4.83;3.27;;;12.00;46.20;;;;;;5033380;28;20394;-71
2021/12/31 10:21:51;;;;;;;3.27;2.97;;;12.00;48.40;;;;;;5033237;28;20394;-72
2021/12/31 10:24:26;;;;;;;3.77;3.47;;;11.90;54.20;;;;;;5032702;28;20468;-72
2021/12/31 10:26:57;;;;;;;3.43;3.13;;;11.90;56.30;;;;;;5033145;28;20430;-73
2021/12/31 10:29:23;;;;;;;4.00;2.80;;;11.90;57.60;;;;;;5033087;28;20421;-71
2021/12/31 10:31:53;;;;;;;3.30;3.03;;;11.90;60.70;;;;;;5031301;28;20799;-71
2021/12/31 10:34:29;;;;;;;4.27;3.40;;;11.90;62.10;;;;;;5032497;28;20446;-71
2021/12/31 10:37:12;;;;;;;3.60;3.20;;;11.90;66.50;;;;;;5033110;28;20426;-72
2021/12/31 10:39:39;;;;;;;7.10;3.50;;;11.80;73.60;;;;;;5032975;28;20422;-71
2021/12/31 10:42:07;;;;;;;5.80;3.60;;;11.80;80.10;;;;;;5032650;28;20398;-71
2021/12/31 10:45:03;;;;;;;2.70;2.20;;;11.80;83.80;;;;;;5037246;28;20935;-70
2021/12/31 10:47:37;;;;;;;2.67;2.47;;;11.80;89.80;;;;;;5036328;28;20453;-71
2021/12/31 10:50:03;;;;;;;5.80;2.23;;;11.80;92.50;;;;;;5036058;28;20433;-71
2021/12/31 10:52:58;;;;;;;2.70;2.50;;;11.80;93.90;;;;;;5034819;28;20476;-70
2021/12/31 10:55:30;;;;;;;2.67;2.47;;;11.70;95.80;;;;;;5036478;28;20647;-70
2021/12/31 10:58:00;;;;;;;2.90;2.60;;;11.70;97.70;;;;;;5017019;28;20383;-70
2021/12/31 11:00:28;;;;;;;2.50;2.30;;;11.70;99.90;;;;;;5022814;28;20748;-71
2021/12/31 11:02:56;;;;;;;2.27;2.07;;;11.70;99.90;;;;;;5036218;28;20382;-71
2021/12/31 11:05:23;;;;;;;1.70;1.60;;;11.70;99.90;;;;;;5036242;28;20739;-71
2021/12/31 11:07:50;;;;;;;2.43;2.23;;;11.70;99.90;;;;;;5036203;28;20465;-69
2021/12/31 11:10:16;;;;;;;2.23;2.13;;;11.70;99.90;;;;;;5036779;28;20390;-69
2021/12/31 11:12:48;;;;;;;2.60;2.40;;;11.70;99.90;;;;;;5035312;28;20414;-71
2021/12/31 11:15:15;;;;;;;2.63;2.43;;;11.70;99.90;;;;;;5035181;28;20422;-65
2021/12/31 11:17:41;;;;;;;2.33;2.20;;;11.70;99.90;;;;;;5036403;28;20414;-68
2021/12/31 11:20:08;;;;;;;2.17;2.07;;;11.70;99.90;;;;;;5036257;28;20418;-70
2021/12/31 11:22:35;;;;;;;3.33;2.13;;;11.70;99.90;;;;;;5035166;28;20462;-72
2021/12/31 11:25:20;;;;;;;2.40;2.30;;;11.70;99.90;;;;;;5036200;28;20385;-70
2021/12/31 11:27:47;;;;;;;2.23;2.13;;;11.70;99.90;;;;;;5036235;28;20432;-68
2021/12/31 11:33:41;;;;;;;2.50;2.40;;;11.60;99.90;;;;;;5069651;28;20602;-67
2021/12/31 11:36:09;;;;;;;3.97;2.50;;;11.60;99.90;;;;;;5063971;28;20426;-65
2021/12/31 11:38:36;;;;;;;2.30;2.20;;;11.70;99.90;;;;;;5050249;28;20182;-65
2021/12/31 11:41:22;;;;;;;3.83;3.50;;;11.60;99.90;;;;;;5042266;28;20421;-65
2021/12/31 11:44:04;;;;;;;4.00;2.90;;;11.70;99.90;;;;;;5029668;28;20896;-69
2021/12/31 11:46:35;;;;;;;2.67;2.47;;;11.70;99.90;;;;;;5043291;28;20845;-66
2021/12/31 11:49:03;;;;;;;2.07;1.97;;;11.70;99.90;;;;;;5050606;28;20375;-73
2021/12/31 11:51:36;;;;;;;2.00;1.90;;;11.70;99.90;;;;;;5036640;28;20411;-69
2021/12/31 11:54:03;;;;;;;4.13;2.00;;;11.60;99.90;;;;;;5029450;28;20373;-70
2021/12/31 11:56:39;;;;;;;2.80;2.60;;;11.60;99.90;;;;;;5045286;28;20441;-68
2021/12/31 11:59:11;;;;;;;4.17;2.40;;;11.60;99.90;;;;;;5050376;28;20397;-69
2021/12/31 12:01:36;;;;;;;2.07;1.97;;;11.60;99.90;;;;;;5050217;28;20438;-70
2021/12/31 12:04:41;;;;;;;1.80;1.70;;;11.60;99.90;;;;;;5049169;28;20404;-71
2021/12/31 12:07:29;;;;;;;2.00;1.90;;;11.60;99.90;;;;;;5030185;28;20214;-70
2021/12/31 12:09:55;;;;;;;9.03;2.57;;;11.60;99.90;;;;;;5034313;28;20487;-72
2021/12/31 12:12:20;;;;;;;2.60;1.80;;;11.60;99.90;;;;;;5047461;28;20507;-69
2021/12/31 12:14:48;;;;;;;2.60;2.33;;;11.50;99.90;;;;;;5048695;28;20262;-69
2021/12/31 12:17:39;;;;;;;1.63;1.53;;;11.50;99.90;;;;;;5049948;28;20202;-69
2021/12/31 12:20:18;;;;;;;2.20;2.00;;;11.50;99.90;;;;;;5048774;28;20505;-69
2021/12/31 12:22:50;;;;;;;2.07;1.97;;;11.50;99.90;;;;;;5029213;28;20792;-69
2021/12/31 12:25:16;;;;;;;2.70;1.90;;;11.50;99.90;;;;;;5050592;28;20429;-70
2021/12/31 12:27:42;;;;;;;1.70;1.60;;;11.50;99.90;;;;;;5049644;28;20410;-69
2021/12/31 12:30:12;;;;;;;4.20;1.67;;;11.40;99.90;;;;;;5049037;28;20170;-69
2021/12/31 12:35:13;;;;;;;1.97;1.77;;;11.40;99.90;;;;;;5048742;28;20413;-69
2021/12/31 12:37:39;;;;;;;1.90;1.80;;;11.40;99.90;;;;;;5049495;28;20396;-69
2021/12/31 12:40:05;;;;;;;2.57;1.90;;;11.30;99.90;;;;;;5049253;28;20394;-70
2021/12/31 12:42:32;;;;;;;2.23;2.13;;;11.40;99.90;;;;;;5048418;28;20179;-71
2021/12/31 12:45:05;;;;;;;4.87;2.97;;;11.40;99.90;;;;;;5036120;28;20433;-72
2021/12/31 12:47:32;;;;;;;5.50;2.10;;;11.40;99.90;;;;;;5035759;28;20425;-68
2021/12/31 12:50:00;;;;;;;6.60;2.40;;;11.40;99.90;;;;;;5035923;28;20420;-72
2021/12/31 12:52:26;;;;;;;4.30;2.30;;;11.30;99.90;;;;;;5035016;28;20548;-73
2021/12/31 12:55:13;;;;;;;3.43;3.13;;;11.30;99.90;;;;;;5034295;28;20426;-69